Time;durP1;ratioP1;P1;durP2;ratioP2;P2;SDS_P1;SDS_P2;PMS_P1;PMS_P2;Temp;Humidity;BMP_temperature;BMP_pressure;BME280_temperature;BME280_humidity;BME280_pressure;Samples;Min_cycle;Max_cycle;Signal;HPM_P1;HPM_P2
2022/04/07 00:00:48;;;;;;;;;;;10.30;99.00;;;;;;5136929;27;20367;-76
2022/04/07 00:03:14;;;;;;;;;;;;;;;;;;5136111;27;19911;-76
2022/04/07 00:05:40;;;;;;;;;;;;;;;;;;5136801;27;19907;-75
2022/04/07 00:08:06;;;;;;;;;;;;;;;;;;5136027;27;19984;-76
2022/04/07 00:10:32;;;;;;;;;;;10.30;99.90;;;;;;5136679;27;19994;-76
2022/04/07 00:12:58;;;;;;;;;;;10.40;99.90;;;;;;5135679;27;20351;-75
2022/04/07 00:15:24;;;;;;;;;;;;;;;;;;5136769;27;19918;-75
2022/04/07 00:17:50;;;;;;;;;;;;;;;;;;5136633;27;19908;-76
2022/04/07 00:20:16;;;;;;;;;;;10.20;99.90;;;;;;5117399;27;19907;-76
2022/04/07 00:22:42;;;;;;;;;;;10.40;98.90;;;;;;5136481;27;20260;-76
2022/04/07 00:25:07;;;;;;;;;;;10.20;97.30;;;;;;5135656;27;19914;-76
2022/04/07 00:27:33;;;;;;;;;;;;;;;;;;5136546;27;19977;-76
2022/04/07 00:29:59;;;;;;;;;;;;;;;;;;5135603;27;19990;-75
2022/04/07 00:32:25;;;;;;;;;;;;;;;;;;5136285;27;19911;-75
2022/04/07 00:34:54;;;;;;;;;;;;;;;;;;5136381;27;19990;-76
2022/04/07 00:37:22;;;;;;;;;;;;;;;;;;5136056;27;19908;-75
2022/04/07 00:39:48;;;;;;;;;;;;;;;;;;5135737;27;19982;-75
2022/04/07 00:42:14;;;;;;;;;;;;;;;;;;5135363;27;19972;-76
2022/04/07 00:44:40;;;;;;;;;;;;;;;;;;5136379;27;19908;-74
2022/04/07 00:47:07;;;;;;;;;;;;;;;;;;5135302;27;20367;-74
2022/04/07 00:49:33;;;;;;;;;;;;;;;;;;5136084;27;20419;-75
2022/04/07 00:51:59;;;;;;;;;;;;;;;;;;5135153;27;19908;-74
2022/04/07 00:54:25;;;;;;;;;;;;;;;;;;5135947;27;20006;-75
2022/04/07 00:56:51;;;;;;;;;;;;;;;;;;5136158;27;19914;-75
2022/04/07 00:59:17;;;;;;;;;;;10.30;99.90;;;;;;5135033;27;19907;-75
2022/04/07 01:01:44;;;;;;;;;;;10.20;99.10;;;;;;5135803;27;19990;-76
2022/04/07 01:04:10;;;;;;;;;;;;;;;;;;5134991;27;20001;-75
2022/04/07 01:06:36;;;;;;;;;;;;;;;;;;5117330;27;20407;-75
2022/04/07 01:09:01;;;;;;;;;;;10.20;99.90;;;;;;5134872;27;19911;-75
2022/04/07 01:11:29;;;;;;;;;;;10.00;99.90;;;;;;5135467;27;19923;-75
2022/04/07 01:13:55;;;;;;;;;;;;;;;;;;5135465;27;20468;-74
2022/04/07 01:16:25;;;;;;;;;;;10.30;99.90;;;;;;5134985;27;20001;-76
2022/04/07 01:18:51;;;;;;;;;;;;;;;;;;5135478;27;20412;-76
2022/04/07 01:21:17;;;;;;;;;;;;;;;;;;5134663;27;19974;-76
2022/04/07 01:23:43;;;;;;;;;;;;;;;;;;5135417;27;19964;-75
2022/04/07 01:26:10;;;;;;;;;;;;;;;;;;5134552;27;19911;-75
2022/04/07 01:28:36;;;;;;;;;;;;;;;;;;5135310;27;19913;-76
2022/04/07 01:31:01;;;;;;;;;;;10.40;94.40;;;;;;5134463;27;19908;-75
2022/04/07 01:33:27;;;;;;;;;;;10.30;94.20;;;;;;5135242;27;19918;-75
2022/04/07 01:35:53;;;;;;;;;;;;;;;;;;5135165;27;19908;-75
2022/04/07 01:38:20;;;;;;;;;;;;;;;;;;5134284;27;19915;-75
2022/04/07 01:40:45;;;;;;;;;;;;;;;;;;5135090;27;19915;-76
2022/04/07 01:43:11;;;;;;;;;;;;;;;;;;5134142;27;19975;-76
2022/04/07 01:45:37;;;;;;;;;;;10.30;99.70;;;;;;5134873;27;19907;-75
2022/04/07 01:48:03;;;;;;;;;;;10.30;99.90;;;;;;5134185;27;19907;-76
2022/04/07 01:50:29;;;;;;;;;;;10.30;98.20;;;;;;5134968;27;19907;-76
2022/04/07 01:52:56;;;;;;;;;;;10.30;98.40;;;;;;5115210;27;20343;-76
2022/04/07 01:55:22;;;;;;;;;;;;;;;;;;5134093;27;20006;-76
2022/04/07 01:57:48;;;;;;;;;;;;;;;;;;5134905;27;19950;-75
2022/04/07 02:00:14;;;;;;;;;;;10.20;99.90;;;;;;5133864;27;19911;-75
2022/04/07 02:02:40;;;;;;;;;;;;;;;;;;5134619;27;19907;-76
2022/04/07 02:05:09;;;;;;;;;;;10.30;99.90;;;;;;5133904;27;19907;-74
2022/04/07 02:07:35;;;;;;;;;;;10.30;96.70;;;;;;5134435;27;20351;-75
2022/04/07 02:10:04;;;;;;;;;;;10.20;96.40;;;;;;5133946;27;20002;-75
2022/04/07 02:12:29;;;;;;;;;;;10.20;96.70;;;;;;5134031;27;20073;-77
2022/04/07 02:14:55;;;;;;;;;;;10.20;97.50;;;;;;5134349;27;19994;-76
2022/04/07 02:17:22;;;;;;;;;;;10.70;97.30;;;;;;5133592;27;19903;-77
2022/04/07 02:19:52;;;;;;;;;;;10.20;96.90;;;;;;5134266;27;19911;-78
2022/04/07 02:22:17;;;;;;;;;;;10.20;97.50;;;;;;5133963;27;19955;-76
2022/04/07 02:24:43;;;;;;;;;;;;;;;;;;5134403;27;20418;-77
2022/04/07 02:27:09;;;;;;;;;;;;;;;;;;5133409;27;19908;-76
2022/04/07 02:29:35;;;;;;;;;;;;;;;;;;5134191;27;20317;-75
2022/04/07 02:32:01;;;;;;;;;;;;;;;;;;5133673;27;19952;-75
2022/04/07 02:34:27;;;;;;;;;;;;;;;;;;5133733;27;19907;-77
2022/04/07 02:36:53;;;;;;;;;;;;;;;;;;5134028;27;19951;-77
2022/04/07 02:39:18;;;;;;;;;;;10.10;99.90;;;;;;5133200;27;19959;-77
2022/04/07 02:41:44;;;;;;;;;;;;;;;;;;5134013;27;19919;-76
2022/04/07 02:44:10;;;;;;;;;;;;;;;;;;5133132;27;19908;-77
2022/04/07 02:46:36;;;;;;;;;;;;;;;;;;5134376;27;19960;-77
2022/04/07 02:49:02;;;;;;;;;;;;;;;;;;5133375;27;19929;-76
2022/04/07 02:51:28;;;;;;;;;;;;;;;;;;5133529;27;20423;-76
2022/04/07 02:53:57;;;;;;;;;;;;;;;;;;5133628;27;19915;-76
2022/04/07 02:56:23;;;;;;;;;;;;;;;;;;5133080;27;19914;-77
2022/04/07 02:58:50;;;;;;;;;;;;;;;;;;5133638;27;19953;-76
2022/04/07 03:01:16;;;;;;;;;;;;;;;;;;5132847;27;19957;-76
2022/04/07 03:03:42;;;;;;;;;;;;;;;;;;5133198;27;19912;-76
2022/04/07 03:06:07;;;;;;;;;;;;;;;;;;5132691;27;19915;-75
2022/04/07 03:08:33;;;;;;;;;;;;;;;;;;5133593;27;19946;-76
2022/04/07 03:11:00;;;;;;;;;;;;;;;;;;5133379;27;19908;-77
2022/04/07 03:13:26;;;;;;;;;;;;;;;;;;5132509;27;19982;-76
2022/04/07 10:48:03;;;;;;;;;;;11.10;99.90;;;;;;5130325;27;20367;-74
2022/04/07 10:50:29;;;;;;;;;;;;;;;;;;5130369;28;19912;-75
2022/04/07 10:53:15;;;;;;;;;;;11.10;95.50;;;;;;5130147;28;19915;-74
2022/04/07 10:55:41;;;;;;;;;;;;;;;;;;5111278;28;19908;-76
2022/04/07 10:58:09;;;;;;;;;;;11.10;80.00;;;;;;5130634;28;19951;-77
2022/04/07 11:00:38;;;;;;;;;;;11.10;61.60;;;;;;5129860;28;20015;-76
2022/04/07 11:03:14;;;;;;;;;;;11.30;51.10;;;;;;5130532;28;20355;-76
2022/04/07 11:05:59;;;;;;;;;;;11.50;60.70;;;;;;5129614;28;19912;-76
2022/04/07 11:08:25;;;;;;;;;;;11.70;59.80;;;;;;5130452;28;19908;-77
2022/04/07 11:10:52;;;;;;;;;;;11.70;53.30;;;;;;5129572;28;20025;-76
2022/04/07 11:13:38;;;;;;;;;;;11.70;49.50;;;;;;5130365;28;20376;-78
2022/04/07 11:16:09;;;;;;;;;;;11.60;49.40;;;;;;5130142;28;19915;-76
2022/04/07 11:18:35;;;;;;;;;;;;;;;;;;5129460;28;19908;-76
2022/04/07 11:21:02;;;;;;;;;;;;;;;;;;5130167;28;19998;-77
2022/04/07 11:23:44;;;;;;;;;;;12.00;18.40;;;;;;5130047;28;19907;-74
2022/04/07 11:26:10;;;;;;;;;;;;;;;;;;5130000;28;19915;-78
2022/04/07 11:28:37;;;;;;;;;;;;;;;;;;5129240;28;19911;-77
2022/04/07 11:31:04;;;;;;;;;;;12.40;14.90;;;;;;5111609;28;19915;-74
2022/04/07 11:33:37;;;;;;;;;;;12.30;12.20;;;;;;5129946;28;20365;-77
2022/04/07 11:36:02;;;;;;;;;;;12.30;7.30;;;;;;5130028;28;19912;-76
2022/04/07 11:38:35;;;;;;;;;;;12.40;7.40;;;;;;5111433;28;20377;-76
2022/04/07 11:41:04;;;;;;;;;;;12.60;1.00;;;;;;5129707;28;19908;-76
2022/04/07 11:43:31;;;;;;;;;;;12.60;1.00;;;;;;5129697;28;19969;-75
2022/04/07 11:45:57;;;;;;;;;;;12.50;1.00;;;;;;5128594;28;19930;-76
2022/04/07 11:48:23;;;;;;;;;;;12.70;1.00;;;;;;5129597;28;19934;-76
2022/04/07 11:50:49;;;;;;;;;;;;;;;;;;5128775;28;19907;-74
2022/04/07 11:53:16;;;;;;;;;;;12.80;1.00;;;;;;5111094;28;19914;-78
2022/04/07 11:55:42;;;;;;;;;;;12.90;1.00;;;;;;5128696;28;19933;-76
2022/04/07 11:58:09;;;;;;;;;;;12.90;1.00;;;;;;5119288;28;19911;-75
2022/04/07 12:00:35;;;;;;;;;;;;;;;;;;5115441;28;19908;-76
2022/04/07 12:03:01;;;;;;;;;;;12.50;1.20;;;;;;5115397;28;19956;-76
2022/04/07 12:05:27;;;;;;;;;;;;;;;;;;5115655;28;19912;-78
2022/04/07 12:07:56;;;;;;;;;;;12.70;1.40;;;;;;5114805;28;20289;-76
2022/04/07 12:10:22;;;;;;;;;;;12.80;1.00;;;;;;5115775;28;19907;-78
2022/04/07 12:12:48;;;;;;;;;;;13.10;1.00;;;;;;5114745;28;19908;-77
2022/04/07 12:15:15;;;;;;;;;;;13.20;1.00;;;;;;5115479;28;19964;-81
2022/04/07 12:17:41;;;;;;;;;;;;;;;;;;5096320;28;20374;-79
2022/04/07 12:20:07;;;;;;;;;;;;;;;;;;5115409;28;20002;-75
2022/04/07 12:22:33;;;;;;;;;;;12.70;1.00;;;;;;5115455;28;19907;-82
2022/04/07 12:24:59;;;;;;;;;;;;;;;;;;5114416;28;19911;-79
2022/04/07 12:27:25;;;;;;;;;;;;;;;;;;5115234;28;19907;-80
2022/04/07 12:29:51;;;;;;;;;;;;;;;;;;5114403;28;19915;-80
2022/04/07 12:32:17;;;;;;;;;;;;;;;;;;5115285;28;19954;-80
2022/04/07 12:34:49;;;;;;;;;;;12.30;8.60;;;;;;5114318;28;19912;-78
2022/04/07 12:37:15;;;;;;;;;;;;;;;;;;5115105;28;19908;-77
2022/04/07 12:39:42;;;;;;;;;;;;;;;;;;5114243;28;19998;-76
2022/04/07 12:42:08;;;;;;;;;;;;;;;;;;5114972;28;19908;-78
2022/04/07 12:44:34;;;;;;;;;;;;;;;;;;5114822;28;19907;-77
2022/04/07 12:47:04;;;;;;;;;;;;;;;;;;5113864;28;19935;-76
2022/04/07 12:49:33;;;;;;;;;;;;;;;;;;5114811;28;19908;-77
2022/04/07 12:51:59;;;;;;;;;;;;;;;;;;5114018;28;19904;-78
2022/04/07 12:54:25;;;;;;;;;;;;;;;;;;5114660;28;19957;-77
2022/04/07 12:56:52;;;;;;;;;;;;;;;;;;5113869;28;19930;-73
2022/04/07 12:59:18;;;;;;;;;;;;;;;;;;5114614;28;19914;-77
2022/04/07 13:01:49;;;;;;;;;;;;;;;;;;5113734;28;19998;-75
2022/04/07 13:04:17;;;;;;;;;;;;;;;;;;5114820;28;19907;-77
2022/04/07 13:06:43;;;;;;;;;;;;;;;;;;5113671;28;19961;-74
2022/04/07 13:09:09;;;;;;;;;;;;;;;;;;5113429;28;19908;-81
2022/04/07 13:11:37;;;;;;;;;;;;;;;;;;5114377;28;19915;-83
2022/04/07 13:14:03;;;;;;;;;;;;;;;;;;5113820;28;19908;-76
2022/04/07 13:16:29;;;;;;;;;;;13.40;1.00;;;;;;5114536;28;19923;-83
2022/04/07 13:18:55;;;;;;;;;;;13.30;1.00;;;;;;5113427;28;19946;-74
2022/04/07 13:21:21;;;;;;;;;;;;;;;;;;5114159;28;20372;-74
2022/04/07 13:23:47;;;;;;;;;;;14.00;1.00;;;;;;5113316;28;19908;-75
2022/04/07 13:26:12;;;;;;;;;;;;;;;;;;5113992;28;19955;-74
2022/04/07 13:28:38;;;;;;;;;;;13.60;1.00;;;;;;5113935;28;20002;-78
2022/04/07 13:31:04;;;;;;;;;;;13.40;1.00;;;;;;5113399;28;19914;-80
2022/04/07 13:33:29;;;;;;;;;;;;;;;;;;5113900;28;19908;-77
2022/04/07 13:35:55;;;;;;;;;;;;;;;;;;5113081;28;19997;-76
2022/04/07 13:38:21;;;;;;;;;;;;;;;;;;5095640;28;20287;-78
2022/04/07 13:40:49;;;;;;;;;;;;;;;;;;5113007;28;19915;-74
2022/04/07 13:43:15;;;;;;;;;;;;;;;;;;5113767;28;19912;-76
2022/04/07 13:45:44;;;;;;;;;;;;;;;;;;5091368;28;19969;-75
2022/04/07 13:48:11;;;;;;;;;;;;;;;;;;5093421;28;19970;-77
2022/04/07 13:50:37;;;;;;;;;;;;;;;;;;5093268;28;19912;-77
2022/04/07 13:53:03;;;;;;;;;;;;;;;;;;5092377;28;19904;-76
2022/04/07 13:55:30;;;;;;;;;;;;;;;;;;5093304;28;19916;-77
2022/04/07 13:57:56;;;;;;;;;;;;;;;;;;5092402;28;20307;-77
2022/04/07 14:00:21;;;;;;;;;;;;;;;;;;5093026;28;19909;-78
2022/04/07 14:02:47;;;;;;;;;;;;;;;;;;5092269;28;19908;-77
2022/04/07 14:05:13;;;;;;;;;;;;;;;;;;5091736;28;19912;-74
2022/04/07 14:07:39;;;;;;;;;;;;;;;;;;5092968;28;19908;-73
2022/04/07 14:10:06;;;;;;;;;;;;;;;;;;5092178;28;19912;-74
2022/04/07 14:12:32;;;;;;;;;;;;;;;;;;5092917;28;19962;-72
2022/04/07 14:14:58;;;;;;;;;;;;;;;;;;5092021;28;19948;-75
2022/04/07 14:17:24;;;;;;;;;;;;;;;;;;5092914;28;19930;-75
2022/04/07 14:19:51;;;;;;;;;;;;;;;;;;5091798;28;19908;-75
2022/04/07 14:22:17;;;;;;;;;;;;;;;;;;5091425;28;20393;-75
2022/04/07 14:24:43;;;;;;;;;;;;;;;;;;5092268;28;19979;-75
2022/04/07 14:27:09;;;;;;;;;;;;;;;;;;5092230;28;20364;-74
2022/04/07 14:29:35;;;;;;;;;;;;;;;;;;5092608;28;20017;-72
2022/04/07 14:32:01;;;;;;;;;;;;;;;;;;5091874;28;19940;-74
2022/04/07 14:34:27;;;;;;;;;;;;;;;;;;5092575;28;20284;-73
2022/04/07 14:36:53;;;;;;;;;;;;;;;;;;5091727;28;19914;-72
2022/04/07 14:39:19;;;;;;;;;;;;;;;;;;5092491;28;19908;-73
2022/04/07 14:41:45;;;;;;;;;;;;;;;;;;5092065;28;19908;-74
2022/04/07 14:44:11;;;;;;;;;;;;;;;;;;5092215;28;19916;-74
2022/04/07 14:46:37;;;;;;;;;;;;;;;;;;5106003;28;20299;-75
2022/04/07 14:49:03;;;;;;;;;;;;;;;;;;5111970;28;20037;-75
2022/04/07 14:51:32;;;;;;;;;;;;;;;;;;5112719;28;20021;-76
2022/04/07 14:53:58;;;;;;;;;;;;;;;;;;5111885;28;19915;-76
2022/04/07 14:56:24;;;;;;;;;;;;;;;;;;5112705;28;19931;-75
2022/04/07 14:58:50;;;;;;;;;;;;;;;;;;5111957;28;20376;-74
2022/04/07 15:01:16;;;;;;;;;;;;;;;;;;5112619;28;19907;-74
2022/04/07 15:03:42;;;;;;;;;;;;;;;;;;5112595;28;19908;-80
2022/04/07 15:06:08;;;;;;;;;;;;;;;;;;5093589;28;19951;-79
2022/04/07 15:08:34;;;;;;;;;;;;;;;;;;5112614;28;19908;-76
2022/04/07 15:11:00;;;;;;;;;;;;;;;;;;5111785;28;19908;-79
2022/04/07 15:13:26;;;;;;;;;;;;;;;;;;5112482;28;20387;-73
2022/04/07 15:15:52;;;;;;;;;;;;;;;;;;5111927;28;19923;-76
2022/04/07 15:18:17;;;;;;;;;;;;;;;;;;5112542;28;19915;-77
2022/04/07 15:20:45;;;;;;;;;;;;;;;;;;5094358;28;19907;-77
2022/04/07 15:23:11;;;;;;;;;;;;;;;;;;5111975;28;19915;-80
2022/04/07 15:25:38;;;;;;;;;;;;;;;;;;5112329;28;19911;-76
2022/04/07 15:28:04;;;;;;;;;;;;;;;;;;5111662;28;19908;-74
2022/04/07 15:30:30;;;;;;;;;;;;;;;;;;5112519;28;19908;-77
2022/04/07 15:32:55;;;;;;;;;;;;;;;;;;5113311;28;20430;-78
2022/04/07 15:35:21;;;;;;;;;;;;;;;;;;5097995;28;19914;-78
2022/04/07 15:37:47;;;;;;;;;;;;;;;;;;5097542;28;19907;-75
2022/04/07 15:40:13;;;;;;;;;;;;;;;;;;5097491;28;19912;-78
2022/04/07 15:42:39;;;;;;;;;;;;;;;;;;5116152;28;20367;-80
2022/04/07 15:45:05;;;;;;;;;;;;;;;;;;5114948;28;19934;-81
2022/04/07 15:47:31;;;;;;;;;;;;;;;;;;5097792;28;20329;-77
2022/04/07 15:49:57;;;;;;;;;;;;;;;;;;5115226;28;19908;-77
2022/04/07 15:52:23;;;;;;;;;;;;;;;;;;5115873;28;19908;-83
2022/04/07 15:54:49;;;;;;;;;;;;;;;;;;5115593;28;19954;-74
2022/04/07 15:57:15;;;;;;;;;;;;;;;;;;5115493;28;20378;-81
2022/04/07 15:59:43;;;;;;;;;;;;;;;;;;5115750;28;19916;-83
2022/04/07 16:02:08;;;;;;;;;;;;;;;;;;5096642;28;19911;-82
2022/04/07 16:04:34;;;;;;;;;;;;;;;;;;5115754;28;19977;-83
2022/04/07 16:07:01;;;;;;;;;;;;;;;;;;5114930;28;19963;-82
2022/04/07 16:09:29;;;;;;;;;;;;;;;;;;5115597;28;19947;-82
2022/04/07 16:11:55;;;;;;;;;;;;;;;;;;5096421;28;19914;-77
2022/04/07 16:14:21;;;;;;;;;;;;;;;;;;5115526;28;19907;-73
2022/04/07 16:16:47;;;;;;;;;;;10.30;5.30;;;;;;5115851;28;20358;-73
2022/04/07 16:19:13;;;;;;;;;;;;;;;;;;5096313;28;19912;-73
2022/04/07 16:21:39;;;;;;;;;;;10.20;8.10;;;;;;5115326;28;19915;-74
2022/04/07 16:24:04;;;;;;;;;;;10.60;5.30;;;;;;5114557;28;19915;-75
2022/04/07 16:26:30;;;;;;;;;;;10.90;8.30;;;;;;5115156;28;20261;-77
2022/04/07 16:28:56;;;;;;;;;;;11.00;2.10;;;;;;5114556;28;19912;-74
2022/04/07 16:31:22;;;;;;;;;;;11.50;4.30;;;;;;5115164;28;19915;-73
2022/04/07 16:33:48;;;;;;;;;;;;;;;;;;5115146;28;19907;-75
2022/04/07 16:36:16;;;;;;;;;;;11.00;1.00;;;;;;5114303;28;19912;-74
2022/04/07 16:38:42;;;;;;;;;;;10.90;1.00;;;;;;5115049;28;19976;-72
2022/04/07 16:41:08;;;;;;;;;;;;;;;;;;5114244;28;20333;-74
2022/04/07 16:43:33;;;;;;;;;;;10.90;1.00;;;;;;5096601;28;20005;-73
2022/04/07 16:45:59;;;;;;;;;;;;;;;;;;5113757;28;20034;-75
2022/04/07 16:48:25;;;;;;;;;;;;;;;;;;5114797;28;20435;-75
2022/04/07 16:50:51;;;;;;;;;;;;;;;;;;5114616;28;19998;-74
2022/04/07 16:53:17;;;;;;;;;;;;;;;;;;5115165;28;20011;-75
2022/04/07 16:55:43;;;;;;;;;;;;;;;;;;5114709;28;20321;-76
2022/04/07 16:58:09;;;;;;;;;;;;;;;;;;5113898;28;19911;-75
2022/04/07 17:00:36;;;;;;;;;;;;;;;;;;5114638;28;19907;-76
2022/04/07 17:03:03;;;;;;;;;;;;;;;;;;5113785;28;19931;-77
2022/04/07 17:05:29;;;;;;;;;;;11.20;1.00;;;;;;5096203;28;19916;-76
2022/04/07 17:07:55;;;;;;;;;;;;;;;;;;5113876;28;19915;-74
2022/04/07 17:10:21;;;;;;;;;;;;;;;;;;5114379;28;19908;-74
2022/04/07 17:12:47;;;;;;;;;;;11.50;1.00;;;;;;5114326;28;19911;-75
2022/04/07 17:15:13;;;;;;;;;;;;;;;;;;5113495;28;19931;-75
2022/04/07 17:17:39;;;;;;;;;;;;;;;;;;5114292;28;20342;-75
2022/04/07 17:20:05;;;;;;;;;;;;;;;;;;5113424;28;19908;-75
2022/04/07 17:22:31;;;;;;;;;;;;;;;;;;5114094;28;19908;-75
2022/04/07 17:24:57;;;;;;;;;;;11.00;1.00;;;;;;5113409;28;19918;-72
2022/04/07 17:27:24;;;;;;;;;;;;;;;;;;5113970;28;20375;-75
2022/04/07 17:29:50;;;;;;;;;;;;;;;;;;5095774;28;19914;-75
2022/04/07 17:32:16;;;;;;;;;;;;;;;;;;5094892;28;19904;-77
2022/04/07 17:34:42;;;;;;;;;;;10.80;1.00;;;;;;5113944;28;19908;-74
2022/04/07 17:37:08;;;;;;;;;;;;;;;;;;5113130;28;19907;-75
2022/04/07 17:39:35;;;;;;;;;;;;;;;;;;5113894;28;19943;-76
2022/04/07 17:42:01;;;;;;;;;;;;;;;;;;5113051;28;19952;-86
2022/04/07 17:44:27;;;;;;;;;;;;;;;;;;5113746;28;19999;-78
2022/04/07 17:46:53;;;;;;;;;;;;;;;;;;5113385;28;20321;-80
2022/04/07 17:49:19;;;;;;;;;;;;;;;;;;5112828;28;19914;-80
2022/04/07 17:51:45;;;;;;;;;;;;;;;;;;5113512;28;19918;-79
2022/04/07 17:54:11;;;;;;;;;;;;;;;;;;5094495;28;19908;-78
2022/04/07 17:56:37;;;;;;;;;;;;;;;;;;5113056;28;19912;-75
2022/04/07 17:59:05;;;;;;;;;;;;;;;;;;5112661;28;19908;-76
2022/04/07 18:01:30;;;;;;;;;;;;;;;;;;5113475;28;19940;-76
2022/04/07 18:03:56;;;;;;;;;;;;;;;;;;5094804;28;20304;-74
2022/04/07 18:06:22;;;;;;;;;;;;;;;;;;5112935;28;19912;-79
2022/04/07 18:08:48;;;;;;;;;;;;;;;;;;5113322;28;19907;-79
2022/04/07 18:11:14;;;;;;;;;;;;;;;;;;5112525;28;20335;-77
2022/04/07 18:13:40;;;;;;;;;;;;;;;;;;5113325;28;19952;-78
2022/04/07 18:16:08;;;;;;;;;;;;;;;;;;5112362;28;20002;-77
2022/04/07 18:18:35;;;;;;;;;;;;;;;;;;5113183;28;19967;-74
2022/04/07 18:21:03;;;;;;;;;;;;;;;;;;5112376;28;19908;-76
2022/04/07 18:23:30;;;;;;;;;;;;;;;;;;5113141;28;19965;-76
2022/04/07 18:25:58;;;;;;;;;;;;;;;;;;5113048;28;19919;-77
2022/04/07 18:28:24;;;;;;;;;;;;;;;;;;5112799;28;19908;-76
2022/04/07 18:30:50;;;;;;;;;;;;;;;;;;5113027;28;19908;-78
2022/04/07 18:33:16;;;;;;;;;;;;;;;;;;5112210;28;20417;-77
2022/04/07 18:35:43;;;;;;;;;;;;;;;;;;5113027;28;19916;-71
2022/04/07 18:38:09;;;;;;;;;;;;;;;;;;5112206;28;19914;-71
2022/04/07 18:40:35;;;;;;;;;;;;;;;;;;5112920;28;19908;-72
2022/04/07 18:43:01;;;;;;;;;;;;;;;;;;5112329;28;19914;-73
2022/04/07 18:45:27;;;;;;;;;;;;;;;;;;5112473;28;19976;-74
2022/04/07 18:47:53;;;;;;;;;;;;;;;;;;5112763;28;19994;-74
2022/04/07 18:50:20;;;;;;;;;;;;;;;;;;5093817;28;19903;-75
2022/04/07 18:52:47;;;;;;;;;;;;;;;;;;5112836;28;19907;-75
2022/04/07 18:55:15;;;;;;;;;;;;;;;;;;5112008;28;19911;-74
2022/04/07 18:57:41;;;;;;;;;;;;;;;;;;5112829;28;19912;-74
2022/04/07 19:00:06;;;;;;;;;;;;;;;;;;5111891;28;19961;-77
2022/04/07 19:02:32;;;;;;;;;;;;;;;;;;5094427;28;20329;-78
2022/04/07 19:04:59;;;;;;;;;;;;;;;;;;5112715;28;19908;-75
2022/04/07 19:07:25;;;;;;;;;;;;;;;;;;5113000;28;19911;-76
2022/04/07 19:09:50;;;;;;;;;;;9.70;5.60;;;;;;5116816;28;19908;-75
2022/04/07 19:12:16;;;;;;;;;;;9.60;7.50;;;;;;5097671;28;20010;-75
2022/04/07 19:14:42;;;;;;;;;;;9.60;12.50;;;;;;5116815;28;19908;-75
2022/04/07 19:17:07;;;;;;;;;;;9.60;9.60;;;;;;5115817;28;20015;-77
2022/04/07 19:19:33;;;;;;;;;;;;;;;;;;5116601;28;19908;-76
2022/04/07 19:21:59;;;;;;;;;;;9.50;19.30;;;;;;5116494;28;19951;-76
2022/04/07 19:24:26;;;;;;;;;;;;;;;;;;5115773;28;19907;-77
2022/04/07 19:26:51;;;;;;;;;;;;;;;;;;5116410;28;19918;-76
2022/04/07 19:29:17;;;;;;;;;;;9.50;12.90;;;;;;5115544;28;19908;-76
2022/04/07 19:31:45;;;;;;;;;;;;;;;;;;5098101;28;19908;-75
2022/04/07 19:34:11;;;;;;;;;;;;;;;;;;5115659;28;19908;-75
2022/04/07 19:36:37;;;;;;;;;;;;;;;;;;5116303;28;19935;-76
2022/04/07 19:39:03;;;;;;;;;;;;;;;;;;5115861;28;19957;-74
2022/04/07 19:41:28;;;;;;;;;;;9.50;9.10;;;;;;5115968;28;19982;-74
2022/04/07 19:43:56;;;;;;;;;;;9.50;11.60;;;;;;5116188;28;20379;-76
2022/04/07 19:46:22;;;;;;;;;;;9.30;6.50;;;;;;5115016;28;19974;-76
2022/04/07 19:48:51;;;;;;;;;;;9.30;3.30;;;;;;5116049;28;19908;-76
2022/04/07 19:51:17;;;;;;;;;;;9.40;3.30;;;;;;5115456;28;19937;-76
2022/04/07 19:53:43;;;;;;;;;;;;;;;;;;5116024;28;19908;-75
2022/04/07 19:56:08;;;;;;;;;;;9.30;11.80;;;;;;5115174;28;20377;-75
2022/04/07 19:58:34;;;;;;;;;;;9.20;8.90;;;;;;5115959;28;19908;-75
2022/04/07 20:01:00;;;;;;;;;;;;;;;;;;5115908;28;19908;-75
2022/04/07 20:03:25;;;;;;;;;;;9.40;9.50;;;;;;5096751;28;19910;-75
2022/04/07 20:05:51;;;;;;;;;;;;;;;;;;5115661;28;20279;-75
2022/04/07 20:08:17;;;;;;;;;;;9.20;5.30;;;;;;5114914;28;19912;-75
2022/04/07 20:10:42;;;;;;;;;;;9.30;5.60;;;;;;5115664;28;19961;-76
2022/04/07 20:13:08;;;;;;;;;;;9.20;6.40;;;;;;5114934;28;19915;-75
2022/04/07 20:15:35;;;;;;;;;;;9.20;6.30;;;;;;5115682;28;19916;-75
2022/04/07 20:18:00;;;;;;;;;;;9.20;8.30;;;;;;5115089;28;19916;-74
2022/04/07 20:20:26;;;;;;;;;;;9.20;7.80;;;;;;5114654;28;19912;-76
2022/04/07 20:22:52;;;;;;;;;;;;;;;;;;5115476;28;19947;-77
2022/04/07 20:25:19;;;;;;;;;;;9.10;8.70;;;;;;5114477;28;19914;-76
2022/04/07 20:27:45;;;;;;;;;;;9.10;8.80;;;;;;5115411;28;20013;-73
2022/04/07 20:30:10;;;;;;;;;;;9.10;14.50;;;;;;5114512;28;19950;-75
2022/04/07 20:32:36;;;;;;;;;;;9.10;15.50;;;;;;5115481;28;20356;-77
2022/04/07 20:35:02;;;;;;;;;;;;;;;;;;5115163;28;19908;-75
2022/04/07 20:37:28;;;;;;;;;;;;;;;;;;5114326;28;19915;-74
2022/04/07 20:39:54;;;;;;;;;;;;;;;;;;5115083;28;19914;-75
2022/04/07 20:42:20;;;;;;;;;;;;;;;;;;5114279;28;20300;-75
2022/04/07 20:44:47;;;;;;;;;;;;;;;;;;5114927;28;19908;-75
2022/04/07 20:47:13;;;;;;;;;;;;;;;;;;5095463;28;20113;-75
2022/04/07 20:49:39;;;;;;;;;;;;;;;;;;5114842;28;20002;-75
2022/04/07 20:52:05;;;;;;;;;;;;;;;;;;5096570;28;19992;-75
2022/04/07 20:54:31;;;;;;;;;;;;;;;;;;5114218;28;19911;-76
2022/04/07 20:56:57;;;;;;;;;;;9.10;13.00;;;;;;5114789;28;19912;-76
2022/04/07 20:59:22;;;;;;;;;;;9.00;13.20;;;;;;5113967;28;19907;-76
2022/04/07 21:01:48;;;;;;;;;;;9.00;15.20;;;;;;5114729;28;20393;-76
2022/04/07 21:04:14;;;;;;;;;;;8.80;15.60;;;;;;5113854;28;19908;-76
2022/04/07 21:06:39;;;;;;;;;;;8.90;16.80;;;;;;5114603;28;20275;-75
2022/04/07 21:09:05;;;;;;;;;;;8.90;12.30;;;;;;5114534;28;19956;-76
2022/04/07 21:11:30;;;;;;;;;;;8.90;14.40;;;;;;5113892;28;20331;-75
2022/04/07 21:14:00;;;;;;;;;;;8.90;14.90;;;;;;5114529;28;20315;-77
2022/04/07 21:16:27;;;;;;;;;;;8.90;15.60;;;;;;5113464;28;19916;-77
2022/04/07 21:18:53;;;;;;;;;;;8.90;18.60;;;;;;5114359;28;20003;-76
2022/04/07 21:21:18;;;;;;;;;;;8.90;20.30;;;;;;5113523;28;20124;-77
2022/04/07 21:23:44;;;;;;;;;;;;;;;;;;5096015;28;19915;-78
2022/04/07 21:26:10;;;;;;;;;;;8.10;50.30;;;;;;5113662;28;20413;-74
2022/04/07 21:28:36;;;;;;;;;;;;;;;;;;5113982;28;19955;-68
2022/04/07 21:31:01;;;;;;;;;;;;;;;;;;5113174;28;19954;-68
2022/04/07 21:33:27;;;;;;;;;;;;;;;;;;5113123;28;20379;-68
2022/04/07 21:35:54;;;;;;;;;;;;;;;;;;5114036;28;19908;-68
2022/04/07 21:38:20;;;;;;;;;;;;;;;;;;5113072;28;20364;-68
2022/04/07 21:40:46;;;;;;;;;;;;;;;;;;5113875;28;19908;-70
2022/04/07 21:43:12;;;;;;;;;;;;;;;;;;5113138;28;19961;-71
2022/04/07 21:45:38;;;;;;;;;;;;;;;;;;5113466;28;20334;-69
2022/04/07 21:48:04;;;;;;;;;;;;;;;;;;5113735;28;19936;-68
2022/04/07 21:50:29;;;;;;;;;;;6.10;99.90;;;;;;5112872;28;20224;-68
2022/04/07 21:52:55;;;;;;;;;;;6.10;99.90;;;;;;5113855;28;19956;-69
2022/04/07 21:55:20;;;;;;;;;;;6.20;99.90;;;;;;5112805;28;19908;-70
2022/04/07 21:57:46;;;;;;;;;;;6.30;99.90;;;;;;5113610;28;19912;-69
2022/04/07 22:00:12;;;;;;;;;;;;;;;;;;5113038;28;19957;-71
2022/04/07 22:02:37;;;;;;;;;;;6.20;99.90;;;;;;5113214;28;19947;-69
2022/04/07 22:05:03;;;;;;;;;;;6.20;99.90;;;;;;5095377;28;20384;-70
2022/04/07 22:07:29;;;;;;;;;;;6.10;99.90;;;;;;5112577;28;20439;-70
2022/04/07 22:09:54;;;;;;;;;;;6.10;99.90;;;;;;5113239;28;20398;-70
2022/04/07 22:12:20;;;;;;;;;;;6.10;99.90;;;;;;5112569;28;19908;-71
2022/04/07 22:14:45;;;;;;;;;;;6.20;99.90;;;;;;5113305;28;19986;-73
2022/04/07 22:17:11;;;;;;;;;;;;;;;;;;5094883;28;20534;-72
2022/04/07 22:19:37;;;;;;;;;;;6.30;99.90;;;;;;5112804;28;19912;-71
2022/04/07 22:22:02;;;;;;;;;;;6.40;99.90;;;;;;5094972;28;19915;-71
2022/04/07 22:24:28;;;;;;;;;;;6.50;99.90;;;;;;5112383;28;20261;-71
2022/04/07 22:26:56;;;;;;;;;;;6.40;99.90;;;;;;5113129;28;19911;-71
2022/04/07 22:29:24;;;;;;;;;;;6.40;99.90;;;;;;5112242;28;19915;-71
2022/04/07 22:31:50;;;;;;;;;;;6.50;99.90;;;;;;5113059;28;20415;-71
2022/04/07 22:34:16;;;;;;;;;;;;;;;;;;5112132;28;19954;-72
2022/04/07 22:36:41;;;;;;;;;;;6.50;99.90;;;;;;5112967;28;19908;-71
2022/04/07 22:39:07;;;;;;;;;;;6.70;99.90;;;;;;5094678;28;19908;-71
2022/04/07 22:41:33;;;;;;;;;;;6.70;99.90;;;;;;5111955;28;19915;-72
2022/04/07 22:43:59;;;;;;;;;;;6.70;99.90;;;;;;5112893;28;19950;-73
2022/04/07 22:46:25;;;;;;;;;;;;;;;;;;5111767;28;19978;-72
2022/04/07 22:48:50;;;;;;;;;;;6.80;99.90;;;;;;5112871;28;19914;-71
2022/04/07 22:51:16;;;;;;;;;;;;;;;;;;5112156;28;19968;-71
2022/04/07 22:53:42;;;;;;;;;;;6.80;99.90;;;;;;5112784;28;19908;-72
2022/04/07 22:56:08;;;;;;;;;;;6.90;99.90;;;;;;5112665;28;19931;-71
2022/04/07 22:58:33;;;;;;;;;;;6.90;99.90;;;;;;5111955;28;19987;-73
2022/04/07 23:00:59;;;;;;;;;;;;;;;;;;5094561;28;19907;-73
2022/04/07 23:03:24;;;;;;;;;;;6.80;99.90;;;;;;5093667;28;19908;-73
2022/04/07 23:05:50;;;;;;;;;;;7.00;99.50;;;;;;5112604;28;19919;-73
2022/04/07 23:08:16;;;;;;;;;;;;;;;;;;5112283;28;20317;-72
2022/04/07 23:10:41;;;;;;;;;;;6.90;99.90;;;;;;5112425;28;19908;-72
2022/04/07 23:13:07;;;;;;;;;;;;;;;;;;5112681;28;19961;-73
2022/04/07 23:15:33;;;;;;;;;;;6.80;99.90;;;;;;5111867;28;19965;-73
2022/04/07 23:18:00;;;;;;;;;;;;;;;;;;5112616;28;20275;-74